createdAt,value
2023-01-30T00:01:25.373Z,35.70
2023-01-30T00:03:52.929Z,36.00
2023-01-30T00:06:20.123Z,37.90
2023-01-30T00:08:47.314Z,37.90
2023-01-30T00:11:16.320Z,36.30
2023-01-30T00:13:44.356Z,35.50
2023-01-30T00:16:12.303Z,35.70
2023-01-30T00:18:41.087Z,36.30
2023-01-30T00:21:11.103Z,37.50
2023-01-30T00:23:39.402Z,38.10
2023-01-30T00:26:07.769Z,38.20
2023-01-30T00:28:34.869Z,37.10
2023-01-30T00:31:01.990Z,38.30
2023-01-30T00:33:29.911Z,38.60
2023-01-30T00:35:57.998Z,37.20
2023-01-30T00:38:25.573Z,35.70
2023-01-30T00:40:52.963Z,36.20
2023-01-30T00:43:39.632Z,35.90
2023-01-30T00:46:45.908Z,36.70
2023-01-30T00:49:13.228Z,36.90
2023-01-30T00:51:40.488Z,36.20
2023-01-30T00:54:07.633Z,36.20
2023-01-30T00:56:35.042Z,37.40
2023-01-30T00:59:02.500Z,37.40
2023-01-30T01:01:29.679Z,38.60
2023-01-30T01:03:56.764Z,38.40
2023-01-30T01:06:23.811Z,38.20
2023-01-30T01:08:50.880Z,38.40
2023-01-30T01:11:24.709Z,37.20
2023-01-30T01:13:55.329Z,37.10
2023-01-30T01:16:22.989Z,36.80
2023-01-30T01:18:51.255Z,37.30
2023-01-30T01:21:20.286Z,37.70
2023-01-30T01:23:52.304Z,38.70
2023-01-30T01:26:20.560Z,38.30
2023-01-30T01:28:47.872Z,37.50
2023-01-30T01:31:17.001Z,36.80
2023-01-30T01:33:44.290Z,36.40
2023-01-30T01:36:12.269Z,35.40
2023-01-30T01:38:43.044Z,34.70
2023-01-30T01:41:12.707Z,35.30
2023-01-30T01:44:08.524Z,35.80
2023-01-30T01:46:40.290Z,34.80
2023-01-30T01:49:28.156Z,35.10
2023-01-30T01:52:00.628Z,34.80
2023-01-30T01:54:34.657Z,35.20
2023-01-30T01:57:12.174Z,34.90
2023-01-30T01:59:45.174Z,35.40
2023-01-30T02:02:14.927Z,34.90
2023-01-30T02:05:05.089Z,34.00
2023-01-30T02:07:41.101Z,34.60
2023-01-30T02:10:12.718Z,33.40
2023-01-30T02:12:41.411Z,33.00
2023-01-30T02:15:09.039Z,34.60
2023-01-30T02:17:36.060Z,35.10
2023-01-30T02:20:07.624Z,34.50
2023-01-30T02:23:08.408Z,34.40
2023-01-30T02:25:55.655Z,35.00
2023-01-30T02:28:44.472Z,35.50
2023-01-30T02:31:32.972Z,36.60
2023-01-30T02:34:15.517Z,35.30
2023-01-30T02:37:26.805Z,34.10
2023-01-30T02:40:17.125Z,33.60
2023-01-30T02:43:03.313Z,33.50
2023-01-30T02:45:46.373Z,32.70
2023-01-30T02:48:25.291Z,33.30
2023-01-30T02:51:04.757Z,34.50
2023-01-30T02:53:34.274Z,34.40
2023-01-30T02:56:01.920Z,33.60
2023-01-30T02:58:39.265Z,35.70
2023-01-30T03:01:15.076Z,36.00
2023-01-30T03:04:32.174Z,35.40
2023-01-30T03:07:18.191Z,36.60
2023-01-30T03:09:58.453Z,35.40
2023-01-30T03:12:45.653Z,34.70
2023-01-30T03:15:22.994Z,33.90
2023-01-30T03:17:50.409Z,34.40
2023-01-30T03:20:20.164Z,34.40
2023-01-30T03:22:48.055Z,35.80
2023-01-30T03:25:20.983Z,34.70
2023-01-30T03:27:51.121Z,36.10
2023-01-30T03:30:18.631Z,36.60
2023-01-30T03:32:45.988Z,36.80
2023-01-30T03:35:13.632Z,33.90
2023-01-30T03:37:40.791Z,33.10
2023-01-30T03:40:08.687Z,35.30
2023-01-30T03:42:35.889Z,35.00
2023-01-30T03:45:02.912Z,35.10
2023-01-30T03:47:29.984Z,35.80
2023-01-30T03:49:57.037Z,36.80
2023-01-30T03:52:24.094Z,37.40
2023-01-30T03:54:52.188Z,36.50
2023-01-30T03:57:19.244Z,35.50
2023-01-30T03:59:46.280Z,35.60
2023-01-30T04:02:15.020Z,35.40
2023-01-30T04:04:42.061Z,35.50
2023-01-30T04:07:09.080Z,35.00
2023-01-30T04:09:36.291Z,35.10
2023-01-30T04:12:03.643Z,34.30
2023-01-30T04:14:30.661Z,34.40
2023-01-30T04:16:57.731Z,34.90
2023-01-30T04:19:25.152Z,35.50
2023-01-30T04:21:52.199Z,36.20
2023-01-30T04:24:19.200Z,36.70
2023-01-30T04:26:46.385Z,36.40
2023-01-30T04:29:13.580Z,37.20
2023-01-30T04:31:40.719Z,37.50
2023-01-30T04:34:07.909Z,37.70
2023-01-30T04:36:35.005Z,37.60
2023-01-30T04:39:02.001Z,36.80
2023-01-30T04:41:29.139Z,36.60
2023-01-30T04:43:56.186Z,37.80
2023-01-30T04:46:23.310Z,37.70
2023-01-30T04:48:50.344Z,37.20
2023-01-30T04:51:17.457Z,37.40
2023-01-30T04:53:44.638Z,37.30
2023-01-30T04:56:11.813Z,37.50
2023-01-30T04:58:39.330Z,36.20
2023-01-30T05:01:17.421Z,35.90
2023-01-30T05:03:44.466Z,35.90
2023-01-30T05:06:11.513Z,34.80
2023-01-30T05:08:38.685Z,35.10
2023-01-30T05:11:05.877Z,35.90
2023-01-30T05:13:33.278Z,35.50
2023-01-30T05:16:00.277Z,34.20
2023-01-30T05:18:27.321Z,34.60
2023-01-30T05:20:54.667Z,35.00
2023-01-30T05:23:21.687Z,35.20
2023-01-30T05:25:48.696Z,34.70
2023-01-30T05:28:15.801Z,33.70
2023-01-30T05:30:42.841Z,34.10
2023-01-30T05:33:09.904Z,33.40
2023-01-30T05:35:37.032Z,33.90
2023-01-30T05:38:04.251Z,34.80
2023-01-30T05:40:31.397Z,34.70
2023-01-30T05:42:58.526Z,36.10
2023-01-30T05:45:26.836Z,35.70
2023-01-30T05:47:58.470Z,34.90
2023-01-30T05:50:27.844Z,33.70
2023-01-30T05:52:54.863Z,33.50
2023-01-30T05:55:21.906Z,34.60
2023-01-30T05:57:50.260Z,34.10
2023-01-30T06:00:17.782Z,33.80
2023-01-30T06:02:44.956Z,31.40
2023-01-30T06:05:12.139Z,31.30
2023-01-30T06:07:39.168Z,31.90
2023-01-30T06:10:06.621Z,32.70
2023-01-30T06:12:33.838Z,33.40
2023-01-30T06:15:01.306Z,33.50
2023-01-30T06:17:29.950Z,32.60
2023-01-30T06:19:57.085Z,33.20
2023-01-30T06:22:24.172Z,32.90
2023-01-30T06:24:51.259Z,33.50
2023-01-30T06:27:19.450Z,33.90
2023-01-30T06:29:46.504Z,35.30
2023-01-30T06:32:13.585Z,35.40
2023-01-30T06:34:40.739Z,33.80
2023-01-30T06:37:07.781Z,32.70
2023-01-30T06:39:34.786Z,32.60
2023-01-30T06:42:01.890Z,33.50
2023-01-30T06:44:28.994Z,32.50
2023-01-30T06:46:56.050Z,33.40
2023-01-30T06:49:23.251Z,33.60
2023-01-30T06:51:50.304Z,34.20
2023-01-30T06:54:17.475Z,34.90
2023-01-30T06:56:44.625Z,34.10
2023-01-30T06:59:11.735Z,33.90
2023-01-30T07:01:39.997Z,33.40
2023-01-30T07:04:07.257Z,34.00
2023-01-30T07:06:34.522Z,31.70
2023-01-30T07:09:01.625Z,32.00
2023-01-30T07:11:28.870Z,33.60
2023-01-30T07:13:56.085Z,34.00
2023-01-30T07:16:29.307Z,35.40
2023-01-30T07:18:59.811Z,36.40
2023-01-30T07:21:27.442Z,36.20
2023-01-30T07:23:54.546Z,34.60
2023-01-30T07:26:21.789Z,34.90
2023-01-30T07:28:48.901Z,35.30
2023-01-30T07:31:16.002Z,34.20
2023-01-30T07:33:43.266Z,32.60
2023-01-30T07:36:10.408Z,33.10
2023-01-30T07:38:37.478Z,33.80
2023-01-30T07:41:04.667Z,33.90
2023-01-30T07:43:31.814Z,33.90
2023-01-30T07:46:00.375Z,33.70
2023-01-30T07:48:27.466Z,33.90
2023-01-30T07:50:59.580Z,35.20
2023-01-30T07:53:26.735Z,33.90
2023-01-30T07:55:54.193Z,32.00
2023-01-30T07:58:21.168Z,32.00
2023-01-30T08:00:48.256Z,31.70
2023-01-30T08:03:18.832Z,31.50
2023-01-30T08:05:47.239Z,31.40
2023-01-30T08:08:16.676Z,30.80
2023-01-30T08:10:44.662Z,30.20
2023-01-30T08:13:11.886Z,30.90
2023-01-30T08:15:38.952Z,31.50
2023-01-30T08:18:07.488Z,31.80
2023-01-30T08:20:35.107Z,31.80
2023-01-30T08:23:02.510Z,31.40
2023-01-30T08:25:30.150Z,31.30
2023-01-30T08:28:00.516Z,31.40
2023-01-30T08:30:28.973Z,32.20
2023-01-30T08:32:56.593Z,32.70
2023-01-30T08:35:24.059Z,31.90
2023-01-30T08:37:51.100Z,32.10
2023-01-30T08:40:18.469Z,32.50
2023-01-30T08:42:46.182Z,32.30
2023-01-30T08:45:13.801Z,32.20
2023-01-30T08:47:40.860Z,33.50
2023-01-30T08:50:08.633Z,31.80
2023-01-30T08:52:35.657Z,31.30
2023-01-30T08:55:02.865Z,32.50
2023-01-30T08:57:30.100Z,32.40
2023-01-30T08:59:57.185Z,32.00
2023-01-30T09:02:24.412Z,31.80
2023-01-30T09:04:51.556Z,32.20
2023-01-30T09:07:19.210Z,32.00
2023-01-30T09:09:46.268Z,31.90
2023-01-30T09:12:13.397Z,30.90
2023-01-30T09:14:40.773Z,30.80
2023-01-30T09:17:07.823Z,31.80
2023-01-30T09:19:37.569Z,31.70
2023-01-30T09:22:05.160Z,30.50
2023-01-30T09:24:33.311Z,31.00
2023-01-30T09:27:00.510Z,30.70
2023-01-30T09:29:28.640Z,31.20
2023-01-30T09:31:56.651Z,30.00
2023-01-30T09:34:27.754Z,29.90
2023-01-30T09:37:00.234Z,29.60
2023-01-30T09:39:28.454Z,29.90
2023-01-30T09:42:09.313Z,29.40
2023-01-30T09:45:05.766Z,29.30
2023-01-30T09:47:32.738Z,30.90
2023-01-30T09:50:06.540Z,30.50
2023-01-30T09:52:51.910Z,30.70
2023-01-30T09:55:21.284Z,30.20
2023-01-30T09:57:49.253Z,30.60
2023-01-30T10:00:21.805Z,29.60
2023-01-30T10:03:08.445Z,30.70
2023-01-30T10:05:40.821Z,31.30
2023-01-30T10:08:22.620Z,30.20
2023-01-30T10:11:12.830Z,30.40
2023-01-30T10:13:55.131Z,30.00
2023-01-30T10:16:31.707Z,30.80
2023-01-30T10:19:29.911Z,30.70
2023-01-30T10:22:05.402Z,29.60
2023-01-30T10:24:41.767Z,28.80
2023-01-30T10:27:17.835Z,28.40
2023-01-30T10:29:57.326Z,28.90
2023-01-30T10:32:33.185Z,28.90
2023-01-30T10:35:14.053Z,28.90
2023-01-30T10:38:20.247Z,28.20
2023-01-30T10:40:57.223Z,27.70
2023-01-30T10:43:48.150Z,27.80
2023-01-30T10:46:31.418Z,27.70
2023-01-30T10:49:07.051Z,28.40
2023-01-30T10:51:43.525Z,28.40
2023-01-30T10:54:19.641Z,27.60
2023-01-30T10:57:11.602Z,27.70
2023-01-30T11:00:10.629Z,26.60
2023-01-30T11:03:01.863Z,26.50
2023-01-30T11:05:39.737Z,26.10
2023-01-30T11:08:29.940Z,26.30
2023-01-30T11:10:57.965Z,28.20
2023-01-30T11:13:34.696Z,27.30
2023-01-30T11:16:07.220Z,28.10
2023-01-30T11:19:18.703Z,28.30
2023-01-30T11:21:43.820Z,27.50
2023-01-30T11:24:19.758Z,27.80
2023-01-30T11:26:48.424Z,28.20
2023-01-30T11:29:33.416Z,28.10
2023-01-30T11:32:05.654Z,28.80
2023-01-30T11:34:33.283Z,27.50
2023-01-30T11:37:15.751Z,27.00
2023-01-30T11:39:53.299Z,27.00
2023-01-30T11:42:24.479Z,26.90
2023-01-30T11:45:15.640Z,27.00
2023-01-30T11:47:57.885Z,25.40
2023-01-30T11:50:57.385Z,25.30
2023-01-30T11:53:28.488Z,24.50
2023-01-30T11:56:06.349Z,24.10
2023-01-30T11:58:39.858Z,24.40
2023-01-30T12:01:10.548Z,23.30
2023-01-30T12:03:44.801Z,23.50
2023-01-30T12:06:12.162Z,23.20
2023-01-30T12:08:43.081Z,23.30
2023-01-30T12:11:24.913Z,23.80
2023-01-30T12:13:55.682Z,24.70
2023-01-30T12:16:33.837Z,24.90
2023-01-30T12:19:07.630Z,24.20
2023-01-30T12:22:01.440Z,24.30
2023-01-30T12:24:51.590Z,25.10
2023-01-30T12:27:48.615Z,26.40
2023-01-30T12:30:51.483Z,26.00
2023-01-30T12:33:19.805Z,25.60
2023-01-30T12:36:16.207Z,25.40
2023-01-30T12:39:13.315Z,25.00
2023-01-30T12:41:40.683Z,24.30
2023-01-30T12:44:22.535Z,24.50
2023-01-30T12:47:05.253Z,24.30
2023-01-30T12:49:48.382Z,24.20
2023-01-30T12:53:09.387Z,23.00
2023-01-30T12:56:01.412Z,22.70
2023-01-30T12:58:44.572Z,23.40
2023-01-30T13:01:11.571Z,24.00
2023-01-30T13:03:45.148Z,24.70
2023-01-30T13:06:31.078Z,25.30
2023-01-30T13:09:35.301Z,25.20
2023-01-30T13:12:33.528Z,25.40
2023-01-30T13:15:21.703Z,26.30
2023-01-30T13:17:57.507Z,27.30
2023-01-30T13:20:52.168Z,27.30
2023-01-30T13:23:31.812Z,26.50
2023-01-30T13:26:27.280Z,25.80
2023-01-30T13:29:03.362Z,24.90
2023-01-30T13:31:36.160Z,25.20
2023-01-30T13:34:07.953Z,25.80
2023-01-30T13:36:45.981Z,26.60
2023-01-30T13:41:50.878Z,27.30
2023-01-30T13:44:31.065Z,28.20
2023-01-30T13:47:08.386Z,28.10
2023-01-30T13:50:20.353Z,28.30
2023-01-30T13:53:10.217Z,28.50
2023-01-30T13:55:54.802Z,27.60
2023-01-30T13:58:39.092Z,27.10
2023-01-30T14:01:06.275Z,27.40
2023-01-30T14:03:34.386Z,27.40
2023-01-30T14:06:15.392Z,26.90
2023-01-30T14:08:45.355Z,26.60
2023-01-30T14:11:33.664Z,26.60
2023-01-30T14:14:03.153Z,26.90
2023-01-30T14:16:48.091Z,27.10
2023-01-30T14:19:30.100Z,28.10
2023-01-30T14:21:59.701Z,28.80
2023-01-30T14:24:28.087Z,28.50
2023-01-30T14:26:57.911Z,29.50
2023-01-30T14:29:41.056Z,29.50
2023-01-30T14:32:19.201Z,28.80
2023-01-30T14:35:04.723Z,28.30
2023-01-30T14:37:41.685Z,28.30
2023-01-30T14:40:23.732Z,28.70
2023-01-30T14:43:12.476Z,28.00
2023-01-30T14:45:48.261Z,29.00
2023-01-30T14:48:38.629Z,29.10
2023-01-30T14:51:26.426Z,29.40
2023-01-30T14:54:00.136Z,29.60
2023-01-30T14:56:54.772Z,30.10
2023-01-30T14:59:27.144Z,29.30
2023-01-30T15:02:02.591Z,29.00
2023-01-30T15:05:10.824Z,28.40
2023-01-30T15:07:46.743Z,29.30
2023-01-30T15:10:45.509Z,28.10
2023-01-30T15:13:27.944Z,28.70
2023-01-30T15:16:04.443Z,28.70
2023-01-30T15:18:52.489Z,29.10
2023-01-30T15:21:37.387Z,29.80
2023-01-30T15:24:39.903Z,29.20
2023-01-30T15:27:19.463Z,28.40
2023-01-30T15:30:05.144Z,28.60
2023-01-30T15:32:33.483Z,27.80
2023-01-30T15:35:01.935Z,27.80
2023-01-30T15:37:57.315Z,28.60
2023-01-30T15:40:27.466Z,28.40
2023-01-30T15:43:23.020Z,27.30
2023-01-30T15:46:25.027Z,26.80
2023-01-30T15:49:30.173Z,26.00
2023-01-30T15:52:04.843Z,26.70
2023-01-30T15:54:31.996Z,27.60
2023-01-30T15:57:01.098Z,27.70
2023-01-30T15:59:38.481Z,27.50
2023-01-30T16:02:07.929Z,27.20
2023-01-30T16:04:35.128Z,26.00
2023-01-30T16:07:17.923Z,26.00
2023-01-30T16:10:06.820Z,26.10
2023-01-30T16:12:36.651Z,26.10
2023-01-30T16:15:18.950Z,25.70
2023-01-30T16:18:12.534Z,26.00
2023-01-30T16:21:02.001Z,26.20
2023-01-30T16:23:38.884Z,26.20
2023-01-30T16:26:09.510Z,25.20
2023-01-30T16:28:36.724Z,25.70
2023-01-30T16:31:06.941Z,24.80
2023-01-30T16:33:37.670Z,24.90
2023-01-30T16:36:07.673Z,25.00
2023-01-30T16:38:44.320Z,24.40
2023-01-30T16:41:34.441Z,24.80
2023-01-30T16:44:10.800Z,24.50
2023-01-30T16:46:55.643Z,24.50
2023-01-30T16:49:40.651Z,25.00
2023-01-30T16:52:45.377Z,25.70
2023-01-30T16:55:21.897Z,26.00
2023-01-30T16:58:07.355Z,25.60
2023-01-30T17:00:40.861Z,25.90
2023-01-30T17:03:24.622Z,25.40
2023-01-30T17:05:52.545Z,25.50
2023-01-30T17:08:31.669Z,25.70
2023-01-30T17:11:00.267Z,26.10
2023-01-30T17:13:36.934Z,27.10
2023-01-30T17:16:32.741Z,26.90
2023-01-30T17:19:01.177Z,27.00
2023-01-30T17:21:33.876Z,25.70
2023-01-30T17:24:06.027Z,26.00
2023-01-30T17:26:34.929Z,26.70
2023-01-30T17:29:02.040Z,27.30
2023-01-30T17:31:29.339Z,27.50
2023-01-30T17:33:56.685Z,27.50
2023-01-30T17:36:29.130Z,27.60
2023-01-30T17:38:57.988Z,27.40
2023-01-30T17:41:31.065Z,27.70
2023-01-30T17:43:58.402Z,27.40
2023-01-30T17:46:42.627Z,26.80
2023-01-30T17:49:21.539Z,27.30
2023-01-30T17:51:49.830Z,26.90
2023-01-30T17:54:17.417Z,27.00
2023-01-30T17:56:56.822Z,27.20
2023-01-30T17:59:24.106Z,26.80
2023-01-30T18:01:52.492Z,27.30
2023-01-30T18:04:20.429Z,27.20
2023-01-30T18:06:56.008Z,27.70
2023-01-30T18:09:25.190Z,27.80
2023-01-30T18:11:52.449Z,26.90
2023-01-30T18:14:19.581Z,27.10
2023-01-30T18:16:47.048Z,27.00
2023-01-30T18:19:18.403Z,26.50
2023-01-30T18:21:45.761Z,26.40
2023-01-30T18:24:14.453Z,28.10
2023-01-30T18:26:43.082Z,28.40
2023-01-30T18:29:10.676Z,28.40
2023-01-30T18:31:39.268Z,28.10
2023-01-30T18:34:07.425Z,27.80
2023-01-30T18:36:35.947Z,27.60
2023-01-30T18:39:04.031Z,28.70
2023-01-30T18:41:31.839Z,28.40
2023-01-30T18:44:01.858Z,28.30
2023-01-30T18:46:29.848Z,28.30
2023-01-30T18:48:57.963Z,27.80
2023-01-30T18:51:27.837Z,28.00
2023-01-30T18:53:55.887Z,27.30
2023-01-30T18:56:34.101Z,27.00
2023-01-30T18:59:04.199Z,26.90
2023-01-30T19:01:35.587Z,26.70
2023-01-30T19:04:04.892Z,27.00
2023-01-30T19:06:33.277Z,26.60
2023-01-30T19:09:00.526Z,26.90
2023-01-30T19:11:46.219Z,26.20
2023-01-30T19:14:14.548Z,26.40
2023-01-30T19:16:41.811Z,26.20
2023-01-30T19:19:10.197Z,26.40
2023-01-30T19:21:37.719Z,26.80
2023-01-30T19:24:06.865Z,26.80
2023-01-30T19:26:35.574Z,27.20
2023-01-30T19:29:02.961Z,27.20
2023-01-30T19:31:30.135Z,27.10
2023-01-30T19:33:59.323Z,26.90
2023-01-30T19:36:29.432Z,27.10
2023-01-30T19:38:59.427Z,28.10
2023-01-30T19:41:29.661Z,27.50
2023-01-30T19:43:58.649Z,27.20
2023-01-30T19:46:26.661Z,27.00
2023-01-30T19:48:53.847Z,27.20
2023-01-30T19:51:27.470Z,26.90
2023-01-30T19:53:59.319Z,26.70
2023-01-30T19:56:28.049Z,26.80
2023-01-30T19:58:58.459Z,26.30
2023-01-30T20:01:29.843Z,26.10
2023-01-30T20:03:57.807Z,25.80
2023-01-30T20:06:28.085Z,24.50
2023-01-30T20:09:07.942Z,24.70
2023-01-30T20:11:36.661Z,25.00
2023-01-30T20:14:06.676Z,25.10
2023-01-30T20:16:35.773Z,24.30
2023-01-30T20:19:09.109Z,24.60
2023-01-30T20:21:36.648Z,25.10
2023-01-30T20:24:04.634Z,25.10
2023-01-30T20:26:39.629Z,25.50
2023-01-30T20:29:08.694Z,25.30
2023-01-30T20:31:38.454Z,24.80
2023-01-30T20:34:08.644Z,25.50
2023-01-30T20:36:37.132Z,25.60
2023-01-30T20:39:07.631Z,25.60
2023-01-30T20:41:37.433Z,26.10
2023-01-30T20:44:09.282Z,26.40
2023-01-30T20:46:45.087Z,26.70
2023-01-30T20:49:22.334Z,26.30
2023-01-30T20:51:51.745Z,25.50
2023-01-30T20:54:21.436Z,25.40
2023-01-30T20:56:51.349Z,25.80
2023-01-30T20:59:24.396Z,25.80
2023-01-30T21:01:52.295Z,26.50
2023-01-30T21:04:22.223Z,26.50
2023-01-30T21:06:49.436Z,26.20
2023-01-30T21:09:19.545Z,26.80
2023-01-30T21:11:47.858Z,26.60
2023-01-30T21:14:15.939Z,26.00
2023-01-30T21:16:43.222Z,25.80
2023-01-30T21:19:16.094Z,26.20
2023-01-30T21:21:50.995Z,26.10
2023-01-30T21:24:22.010Z,26.70
2023-01-30T21:26:49.626Z,26.20
2023-01-30T21:29:20.099Z,25.30
2023-01-30T21:31:50.620Z,25.00
2023-01-30T21:34:17.855Z,24.70
2023-01-30T21:37:04.960Z,24.50
2023-01-30T21:39:51.643Z,24.80
2023-01-30T21:42:37.079Z,24.80
2023-01-30T21:45:06.768Z,25.50
2023-01-30T21:47:34.081Z,25.70
2023-01-30T21:50:01.232Z,25.90
2023-01-30T21:52:28.308Z,25.90
2023-01-30T21:54:57.121Z,26.00
2023-01-30T21:57:24.297Z,26.20
2023-01-30T21:59:51.667Z,26.40
2023-01-30T22:02:18.781Z,26.90
2023-01-30T22:04:45.934Z,27.00
2023-01-30T22:07:13.183Z,26.90
2023-01-30T22:09:40.183Z,25.90
2023-01-30T22:12:07.300Z,25.70
2023-01-30T22:14:36.380Z,25.80
2023-01-30T22:17:03.597Z,25.60
2023-01-30T22:19:35.680Z,26.10
2023-01-30T22:22:03.832Z,25.70
2023-01-30T22:24:30.999Z,25.90
2023-01-30T22:26:58.163Z,26.10
2023-01-30T22:29:25.200Z,26.40
2023-01-30T22:31:52.348Z,25.70
2023-01-30T22:34:19.637Z,25.80
2023-01-30T22:36:47.968Z,25.80
2023-01-30T22:39:15.356Z,26.20
2023-01-30T22:41:42.737Z,26.30
2023-01-30T22:44:10.795Z,25.70
2023-01-30T22:46:39.692Z,26.40
2023-01-30T22:49:08.123Z,26.40
2023-01-30T22:51:41.047Z,25.90
2023-01-30T22:54:17.298Z,25.30
2023-01-30T22:56:48.822Z,25.10
2023-01-30T22:59:16.883Z,24.40
2023-01-30T23:01:51.030Z,24.80
2023-01-30T23:04:22.775Z,24.80
2023-01-30T23:06:51.958Z,24.60
2023-01-30T23:09:21.830Z,24.40
2023-01-30T23:12:18.904Z,24.70
2023-01-30T23:14:46.292Z,24.50
2023-01-30T23:17:31.640Z,24.50
2023-01-30T23:19:58.685Z,24.50
2023-01-30T23:22:25.746Z,24.60
2023-01-30T23:24:52.867Z,24.50
2023-01-30T23:27:20.738Z,24.40
2023-01-30T23:29:47.987Z,23.70
2023-01-30T23:32:15.281Z,24.00
2023-01-30T23:34:42.509Z,25.00
2023-01-30T23:37:09.580Z,24.80
2023-01-30T23:39:40.044Z,24.60
2023-01-30T23:42:07.080Z,24.90
2023-01-30T23:44:34.137Z,24.70
2023-01-30T23:47:01.253Z,24.40
2023-01-30T23:49:28.701Z,23.90
2023-01-30T23:51:55.693Z,23.70
2023-01-30T23:54:22.783Z,23.80
2023-01-30T23:56:49.899Z,24.20
2023-01-30T23:59:16.954Z,24.70
